Time;durP1;ratioP1;P1;durP2;ratioP2;P2;SDS_P1;SDS_P2;PMS_P1;PMS_P2;Temp;Humidity;BMP_temperature;BMP_pressure;BME280_temperature;BME280_humidity;BME280_pressure;Samples;Min_cycle;Max_cycle;Signal;HPM_P1;HPM_P2
2023/08/17 00:00:08;;;;;;;12.95;11.02;;;16.00;87.10;;;;;;5092308;28;20245;-88
2023/08/17 00:02:35;;;;;;;15.98;11.82;;;16.00;87.00;;;;;;5092193;28;20170;-89
2023/08/17 00:05:00;;;;;;;14.60;12.10;;;16.00;86.90;;;;;;5092147;28;20568;-88
2023/08/17 00:07:26;;;;;;;12.77;11.68;;;15.90;86.90;;;;;;5092032;28;20676;-88
2023/08/17 00:09:51;;;;;;;12.48;11.48;;;15.90;87.00;;;;;;5092408;28;20734;-88
2023/08/17 00:12:17;;;;;;;14.60;11.90;;;15.80;87.00;;;;;;5092269;28;20183;-88
2023/08/17 00:14:42;;;;;;;14.60;12.45;;;15.80;87.10;;;;;;5093279;28;20229;-88
2023/08/17 00:17:08;;;;;;;14.00;11.77;;;15.80;87.20;;;;;;5092004;28;20293;-88
2023/08/17 00:19:33;;;;;;;16.52;11.30;;;15.80;87.20;;;;;;5093190;28;20566;-88
2023/08/17 00:21:59;;;;;;;13.43;12.05;;;15.80;87.20;;;;;;5091942;28;20657;-88
2023/08/17 00:24:24;;;;;;;12.65;11.63;;;15.70;87.10;;;;;;5094713;28;20193;-88
2023/08/17 00:26:50;;;;;;;22.63;20.92;;;15.70;87.20;;;;;;5097462;28;20181;-88
2023/08/17 00:29:17;;;;;;;24.60;22.70;;;15.70;87.30;;;;;;5097330;28;20249;-88
2023/08/17 00:31:42;;;;;;;13.52;10.80;;;15.70;87.50;;;;;;5097284;28;20220;-88
2023/08/17 00:34:08;;;;;;;13.45;10.35;;;15.60;87.70;;;;;;5097252;28;20175;-88
2023/08/17 00:36:33;;;;;;;14.73;13.32;;;15.60;87.90;;;;;;5097228;28;20720;-88
2023/08/17 00:38:59;;;;;;;23.95;22.00;;;15.60;88.00;;;;;;5096036;28;20253;-88
2023/08/17 00:41:24;;;;;;;25.42;23.55;;;15.60;88.10;;;;;;5095839;28;20170;-88
2023/08/17 00:43:50;;;;;;;12.82;10.68;;;15.60;88.20;;;;;;5097480;28;20571;-88
2023/08/17 00:46:16;;;;;;;14.50;12.13;;;15.70;88.20;;;;;;5096900;28;20243;-89
2023/08/17 00:48:43;;;;;;;13.07;11.77;;;15.70;88.20;;;;;;5097067;28;20593;-89
2023/08/17 00:51:09;;;;;;;12.23;11.23;;;15.70;88.20;;;;;;5095999;28;20182;-89
2023/08/17 00:53:34;;;;;;;13.73;11.07;;;15.70;88.20;;;;;;5096917;28;20212;-89
2023/08/17 00:56:02;;;;;;;12.68;11.35;;;15.80;88.30;;;;;;5096744;28;20743;-89
2023/08/17 00:58:28;;;;;;;12.60;11.30;;;15.80;88.20;;;;;;5095691;28;20265;-88
2023/08/17 01:00:53;;;;;;;11.48;10.68;;;15.80;88.10;;;;;;5095736;28;20271;-89
2023/08/17 01:03:22;;;;;;;12.93;11.52;;;15.80;88.00;;;;;;5096725;28;20167;-89
2023/08/17 01:05:47;;;;;;;12.98;11.73;;;15.80;88.00;;;;;;5095276;28;20201;-88
2023/08/17 01:08:13;;;;;;;12.93;11.35;;;15.80;88.00;;;;;;5095777;28;20175;-89
2023/08/17 01:10:52;;;;;;;15.45;11.20;;;15.80;88.00;;;;;;5096561;28;20193;-88
2023/08/17 01:13:44;;;;;;;13.10;11.18;;;15.80;88.00;;;;;;5095806;28;20178;-88
2023/08/17 01:16:14;;;;;;;12.93;11.52;;;15.80;87.90;;;;;;5095204;28;20209;-88
2023/08/17 01:18:41;;;;;;;12.18;11.13;;;15.80;88.00;;;;;;5095263;28;20190;-88
2023/08/17 01:21:10;;;;;;;16.33;11.68;;;15.80;88.10;;;;;;5095232;28;20178;-89
2023/08/17 01:23:35;;;;;;;12.27;11.27;;;15.80;88.20;;;;;;5095158;28;20658;-89
2023/08/17 01:26:01;;;;;;;15.48;11.30;;;15.80;88.30;;;;;;5096270;28;20198;-88
2023/08/17 01:28:27;;;;;;;13.10;11.45;;;15.80;88.30;;;;;;5096538;28;20208;-88
2023/08/17 01:31:11;;;;;;;12.15;10.95;;;15.80;88.40;;;;;;5095093;28;20178;-89
2023/08/17 01:33:46;;;;;;;12.50;11.30;;;15.80;88.50;;;;;;5095011;28;20163;-89
2023/08/17 01:36:35;;;;;;;14.95;11.02;;;15.80;88.50;;;;;;5094605;28;20213;-89
2023/08/17 01:39:03;;;;;;;12.48;11.25;;;15.80;88.70;;;;;;5094945;28;20544;-89
2023/08/17 01:41:31;;;;;;;12.02;11.10;;;15.70;88.60;;;;;;5095000;28;20231;-89
2023/08/17 01:43:57;;;;;;;12.50;11.23;;;15.70;88.70;;;;;;5095925;28;20159;-89
2023/08/17 01:46:22;;;;;;;12.38;11.25;;;15.70;88.80;;;;;;5094674;28;20738;-89
2023/08/17 01:48:48;;;;;;;12.82;11.50;;;15.70;88.80;;;;;;5094590;28;20221;-89
2023/08/17 01:51:19;;;;;;;12.68;11.50;;;15.70;88.90;;;;;;5094599;28;20177;-89
2023/08/17 01:53:45;;;;;;;12.50;11.43;;;15.70;88.90;;;;;;5094381;28;20611;-89
2023/08/17 01:56:11;;;;;;;12.60;11.43;;;15.70;88.90;;;;;;5094399;28;20297;-88
2023/08/17 01:58:36;;;;;;;12.18;11.13;;;15.70;88.90;;;;;;5094534;28;20173;-88
2023/08/17 02:01:02;;;;;;;13.10;11.80;;;15.70;88.90;;;;;;5094477;28;20257;-89
2023/08/17 02:03:28;;;;;;;12.50;11.43;;;15.70;88.90;;;;;;5095588;28;20175;-89
2023/08/17 02:05:56;;;;;;;13.82;12.00;;;15.70;88.90;;;;;;5094270;28;20787;-89
2023/08/17 02:08:21;;;;;;;12.50;11.27;;;15.70;88.90;;;;;;5094337;28;20174;-88
2023/08/17 02:10:47;;;;;;;12.55;11.48;;;15.70;88.90;;;;;;5094337;28;20647;-88
2023/08/17 02:13:14;;;;;;;13.98;11.38;;;15.70;88.90;;;;;;5094203;28;20705;-88
2023/08/17 02:15:40;;;;;;;12.10;11.20;;;15.70;88.90;;;;;;5094042;28;20191;-88
2023/08/17 02:18:05;;;;;;;14.68;11.25;;;15.70;88.90;;;;;;5095328;28;20237;-88
2023/08/17 02:20:31;;;;;;;14.05;11.35;;;15.70;89.00;;;;;;5095310;28;20167;-89
2023/08/17 02:22:56;;;;;;;12.82;11.50;;;15.70;89.10;;;;;;5093992;28;20719;-88
2023/08/17 02:25:22;;;;;;;13.68;11.20;;;15.60;89.10;;;;;;5093982;28;20674;-88
2023/08/17 02:27:47;;;;;;;14.52;11.02;;;15.70;89.10;;;;;;5093949;28;20178;-89
2023/08/17 02:30:13;;;;;;;13.57;12.15;;;15.70;89.10;;;;;;5093944;28;20658;-88
2023/08/17 02:32:39;;;;;;;13.65;11.40;;;15.60;89.20;;;;;;5093846;28;20174;-88
2023/08/17 02:35:06;;;;;;;14.60;11.57;;;15.60;89.20;;;;;;5094851;28;20206;-89
2023/08/17 02:37:32;;;;;;;12.38;11.20;;;15.60;89.30;;;;;;5094809;28;20582;-89
2023/08/17 02:39:58;;;;;;;15.15;11.93;;;15.60;89.40;;;;;;5094975;28;20253;-88
2023/08/17 02:42:23;;;;;;;12.88;11.55;;;15.60;89.50;;;;;;5093630;28;20262;-89
2023/08/17 02:44:49;;;;;;;12.93;11.57;;;15.60;89.60;;;;;;5094970;28;20198;-88
2023/08/17 02:47:14;;;;;;;12.63;11.60;;;15.70;89.60;;;;;;5093265;28;20175;-89
2023/08/17 02:49:40;;;;;;;13.73;11.10;;;15.70;89.60;;;;;;5093489;28;20189;-88
2023/08/17 02:52:06;;;;;;;13.40;12.02;;;15.70;89.70;;;;;;5093497;28;20190;-89
2023/08/17 02:54:31;;;;;;;12.85;11.73;;;15.70;89.70;;;;;;5094412;28;20206;-89
2023/08/17 02:56:57;;;;;;;12.52;11.43;;;15.70;89.70;;;;;;5093190;28;20289;-88
2023/08/17 02:59:23;;;;;;;14.65;13.23;;;15.70;89.70;;;;;;5093282;28;20171;-88
2023/08/17 03:01:49;;;;;;;13.07;12.02;;;15.70;89.80;;;;;;5094487;28;20220;-88
2023/08/17 03:04:14;;;;;;;18.30;12.05;;;15.60;89.80;;;;;;5093142;28;20669;-88
2023/08/17 03:06:40;;;;;;;14.07;12.68;;;15.60;89.90;;;;;;5094713;28;20241;-88
2023/08/17 03:09:05;;;;;;;14.30;12.80;;;15.70;90.00;;;;;;5093149;28;20197;-88
2023/08/17 03:11:31;;;;;;;16.98;12.65;;;15.60;90.00;;;;;;5093057;28;20178;-88
2023/08/17 03:14:00;;;;;;;13.60;12.30;;;15.60;90.00;;;;;;5092969;28;20208;-89
2023/08/17 03:16:26;;;;;;;13.18;12.07;;;15.60;90.10;;;;;;5092957;28;20191;-88
2023/08/17 03:18:52;;;;;;;14.57;12.38;;;15.60;90.10;;;;;;5092994;28;20175;-89
2023/08/17 03:21:18;;;;;;;14.02;12.82;;;15.60;90.10;;;;;;5093017;28;20553;-88
2023/08/17 03:23:44;;;;;;;14.23;12.80;;;15.60;90.10;;;;;;5094101;28;20653;-88
2023/08/17 03:26:09;;;;;;;13.52;12.50;;;15.60;90.20;;;;;;5092759;28;20230;-88
2023/08/17 03:28:35;;;;;;;14.25;12.85;;;15.70;90.20;;;;;;5092678;28;20646;-88
2023/08/17 03:31:01;;;;;;;15.32;13.30;;;15.70;90.30;;;;;;5092759;28;20183;-89
2023/08/17 03:33:27;;;;;;;14.00;12.73;;;15.70;90.40;;;;;;5093724;28;20212;-88
2023/08/17 03:35:52;;;;;;;14.77;13.48;;;15.70;90.30;;;;;;5092515;28;20199;-89
2023/08/17 03:38:18;;;;;;;16.38;13.15;;;15.70;90.30;;;;;;5093849;28;20163;-89
2023/08/17 03:40:43;;;;;;;17.60;13.27;;;15.70;90.40;;;;;;5092581;28;20166;-88
2023/08/17 03:43:09;;;;;;;16.65;13.75;;;15.70;90.40;;;;;;5092576;28;20266;-88
2023/08/17 03:45:34;;;;;;;14.80;13.20;;;15.70;90.40;;;;;;5092443;28;20201;-89
2023/08/17 03:48:00;;;;;;;14.40;13.18;;;15.70;90.50;;;;;;5092513;28;20183;-88
2023/08/17 03:50:29;;;;;;;14.15;12.80;;;15.60;90.50;;;;;;5092546;28;20208;-88
2023/08/17 03:52:54;;;;;;;13.30;12.27;;;15.60;90.50;;;;;;5092410;28;20178;-88
2023/08/17 03:55:20;;;;;;;14.15;12.50;;;15.60;90.50;;;;;;5092337;28;20213;-89
2023/08/17 03:57:45;;;;;;;14.07;12.68;;;15.60;90.60;;;;;;5092156;28;20198;-89
2023/08/17 04:00:11;;;;;;;14.07;12.80;;;15.60;90.70;;;;;;5091683;28;20545;-89
2023/08/17 04:02:37;;;;;;;14.50;13.20;;;15.60;90.70;;;;;;5092217;28;20177;-88
2023/08/17 04:05:03;;;;;;;14.63;13.30;;;15.60;90.80;;;;;;5092099;28;20202;-88
2023/08/17 04:07:28;;;;;;;14.75;13.45;;;15.60;90.90;;;;;;5092170;28;20270;-89
2023/08/17 04:09:54;;;;;;;14.82;12.35;;;15.60;91.00;;;;;;5092153;28;20178;-88
2023/08/17 04:12:19;;;;;;;14.20;12.82;;;15.60;91.10;;;;;;5093410;28;20166;-88
2023/08/17 04:14:45;;;;;;;14.30;13.10;;;15.60;91.10;;;;;;5093559;28;20722;-88
2023/08/17 04:17:11;;;;;;;13.98;12.73;;;15.60;91.20;;;;;;5093180;28;20194;-88
2023/08/17 04:19:37;;;;;;;14.45;13.15;;;15.60;91.30;;;;;;5093318;28;20163;-89
2023/08/17 04:22:03;;;;;;;14.63;13.52;;;15.60;91.30;;;;;;5092224;28;20194;-88
2023/08/17 04:24:28;;;;;;;14.05;12.75;;;15.60;91.30;;;;;;5092375;28;20186;-89
2023/08/17 04:26:54;;;;;;;14.90;13.50;;;15.60;91.40;;;;;;5092083;28;20186;-89
2023/08/17 04:29:19;;;;;;;20.73;13.57;;;15.60;91.40;;;;;;5093215;28;20170;-88
2023/08/17 04:31:45;;;;;;;16.70;14.43;;;15.70;91.50;;;;;;5093154;28;20257;-87
2023/08/17 04:34:11;;;;;;;14.75;13.30;;;15.60;91.50;;;;;;5091811;28;20642;-89
2023/08/17 04:36:36;;;;;;;20.38;13.82;;;15.70;91.60;;;;;;5091821;28;20205;-88
2023/08/17 04:39:04;;;;;;;15.38;13.82;;;15.70;91.60;;;;;;5091853;28;20650;-87
2023/08/17 04:41:30;;;;;;;16.30;14.88;;;15.70;91.70;;;;;;5091995;28;20752;-89
2023/08/17 04:43:55;;;;;;;16.60;15.10;;;15.70;91.80;;;;;;5091752;28;20181;-88
2023/08/17 04:46:21;;;;;;;15.55;13.95;;;15.70;91.80;;;;;;5092141;28;20265;-89
2023/08/17 04:48:47;;;;;;;17.10;14.60;;;15.70;91.90;;;;;;5092084;28;20310;-88
2023/08/17 04:51:12;;;;;;;21.00;15.18;;;15.70;92.00;;;;;;5093501;28;20261;-89
2023/08/17 04:53:38;;;;;;;18.23;15.38;;;15.70;92.00;;;;;;5091747;28;20170;-88
2023/08/17 04:56:04;;;;;;;25.38;23.52;;;15.70;92.10;;;;;;5091669;28;20218;-88
2023/08/17 04:58:30;;;;;;;28.20;25.95;;;15.70;92.20;;;;;;5092916;28;20646;-88
2023/08/17 05:00:55;;;;;;;26.83;25.02;;;15.70;92.20;;;;;;5091732;28;20189;-88
2023/08/17 05:03:21;;;;;;;15.65;14.25;;;15.80;92.30;;;;;;5091704;28;20203;-88
2023/08/17 05:05:46;;;;;;;16.77;15.13;;;15.80;92.30;;;;;;5091692;28;20239;-88
2023/08/17 05:08:13;;;;;;;24.40;21.95;;;15.80;92.30;;;;;;5091654;28;20175;-88
2023/08/17 05:10:39;;;;;;;27.00;24.08;;;15.80;92.30;;;;;;5094608;28;20173;-88
2023/08/17 05:13:04;;;;;;;17.48;15.68;;;15.80;92.30;;;;;;5096692;28;20605;-88
2023/08/17 05:15:30;;;;;;;18.88;15.35;;;15.80;92.30;;;;;;5095266;28;20753;-89
2023/08/17 05:17:56;;;;;;;21.25;15.93;;;15.80;92.30;;;;;;5095140;28;20207;-89
2023/08/17 05:20:21;;;;;;;19.65;16.58;;;15.90;92.40;;;;;;5095278;28;20268;-88
2023/08/17 05:22:47;;;;;;;21.40;17.38;;;15.90;92.40;;;;;;5096919;28;20638;-88
2023/08/17 05:25:13;;;;;;;19.42;17.58;;;15.80;92.40;;;;;;5095023;28;20535;-87
2023/08/17 05:27:38;;;;;;;19.50;18.02;;;15.90;92.50;;;;;;5096193;28;20181;-88
2023/08/17 05:30:05;;;;;;;19.50;17.58;;;15.80;92.50;;;;;;5094910;28;20642;-88
2023/08/17 05:32:30;;;;;;;20.48;18.92;;;15.80;92.50;;;;;;5094972;28;20598;-88
2023/08/17 05:34:57;;;;;;;23.42;19.25;;;15.80;92.60;;;;;;5094849;28;20194;-88
2023/08/17 05:37:22;;;;;;;20.65;19.08;;;15.80;92.50;;;;;;5096101;28;20629;-89
2023/08/17 05:39:48;;;;;;;21.83;19.95;;;15.80;92.60;;;;;;5096132;28;20175;-90
2023/08/17 05:42:13;;;;;;;21.42;19.35;;;15.70;92.70;;;;;;5095124;28;20170;-89
2023/08/17 05:44:39;;;;;;;21.60;19.52;;;15.80;92.70;;;;;;5094709;28;20684;-89
2023/08/17 05:47:04;;;;;;;20.80;18.75;;;15.70;92.80;;;;;;5096090;28;20175;-89
2023/08/17 05:49:30;;;;;;;20.00;17.98;;;15.70;92.90;;;;;;5095870;28;20178;-89
2023/08/17 05:51:56;;;;;;;21.65;18.75;;;15.70;92.90;;;;;;5095825;28;20638;-89
2023/08/17 05:54:21;;;;;;;20.42;18.45;;;15.70;93.00;;;;;;5094566;28;20259;-90
2023/08/17 05:56:47;;;;;;;20.10;18.20;;;15.70;93.10;;;;;;5094528;28;20285;-89
2023/08/17 05:59:13;;;;;;;20.23;18.17;;;15.60;93.20;;;;;;5094481;28;20625;-89
2023/08/17 06:01:40;;;;;;;19.65;17.83;;;15.70;93.30;;;;;;5095696;28;20541;-89
2023/08/17 06:04:06;;;;;;;20.38;18.35;;;15.60;93.40;;;;;;5094385;28;20171;-90
2023/08/17 06:06:31;;;;;;;23.63;18.58;;;15.60;93.50;;;;;;5094252;28;20182;-90
2023/08/17 06:08:57;;;;;;;20.90;18.85;;;15.60;93.70;;;;;;5094260;28;20178;-90
2023/08/17 06:11:23;;;;;;;21.30;19.48;;;15.60;93.80;;;;;;5095721;28;20183;-90
2023/08/17 06:13:49;;;;;;;20.80;18.90;;;15.60;94.00;;;;;;5094109;28;20182;-89
2023/08/17 06:16:15;;;;;;;21.15;18.80;;;15.60;94.10;;;;;;5094049;28;20206;-91
2023/08/17 06:18:41;;;;;;;21.38;19.50;;;15.60;94.30;;;;;;5094254;28;20301;-91
2023/08/17 06:21:07;;;;;;;22.13;20.00;;;15.60;94.40;;;;;;5094016;28;20204;-91
2023/08/17 06:23:33;;;;;;;23.33;20.33;;;15.60;94.50;;;;;;5093513;28;20228;-91
2023/08/17 06:26:00;;;;;;;20.80;19.08;;;15.60;94.50;;;;;;5093937;28;20187;-89
2023/08/17 06:28:26;;;;;;;20.88;18.58;;;15.60;94.60;;;;;;5093942;28;20747;-90
2023/08/17 06:30:53;;;;;;;22.58;20.42;;;15.70;94.70;;;;;;5094265;28;20175;-90
2023/08/17 06:33:19;;;;;;;22.63;20.42;;;15.60;94.70;;;;;;5093854;28;20171;-90
2023/08/17 06:35:44;;;;;;;22.73;20.38;;;15.60;94.80;;;;;;5093655;28;20593;-90
2023/08/17 06:38:10;;;;;;;24.05;21.92;;;15.70;94.80;;;;;;5093775;28;20584;-90
2023/08/17 06:40:35;;;;;;;24.90;22.70;;;15.70;94.90;;;;;;5093649;28;20540;-90
2023/08/17 06:43:01;;;;;;;26.30;22.08;;;15.70;94.90;;;;;;5093747;28;20249;-90
2023/08/17 06:45:26;;;;;;;23.80;22.00;;;15.70;95.00;;;;;;5093870;28;20201;-90
2023/08/17 06:47:52;;;;;;;24.48;21.85;;;15.80;95.00;;;;;;5093519;28;20193;-90
2023/08/17 06:50:18;;;;;;;25.60;22.95;;;15.70;95.10;;;;;;5093561;28;20219;-90
2023/08/17 06:52:43;;;;;;;26.70;24.02;;;15.80;95.10;;;;;;5093695;28;20181;-90
2023/08/17 06:55:10;;;;;;;26.60;24.23;;;15.70;95.10;;;;;;5093323;28;20708;-90
2023/08/17 06:57:36;;;;;;;38.17;34.75;;;15.80;95.10;;;;;;5093206;28;20222;-90
2023/08/17 07:00:05;;;;;;;37.55;34.35;;;15.80;95.20;;;;;;5093376;28;20723;-90
2023/08/17 07:02:31;;;;;;;25.55;22.95;;;15.80;95.20;;;;;;5093265;28;20665;-90
2023/08/17 07:04:56;;;;;;;24.67;22.55;;;15.80;95.20;;;;;;5093129;28;20206;-90
2023/08/17 07:07:22;;;;;;;24.52;22.48;;;15.80;95.20;;;;;;5093330;28;20171;-90
2023/08/17 07:09:47;;;;;;;26.92;24.00;;;15.80;95.20;;;;;;5093017;28;20187;-90
2023/08/17 07:12:13;;;;;;;27.15;23.77;;;15.90;95.20;;;;;;5094089;28;20600;-90
2023/08/17 07:14:38;;;;;;;31.38;24.63;;;15.80;95.20;;;;;;5093030;28;20285;-90
2023/08/17 07:17:04;;;;;;;25.75;23.35;;;15.90;95.30;;;;;;5094224;28;20226;-90
2023/08/17 07:19:29;;;;;;;26.42;23.80;;;15.90;95.30;;;;;;5092865;28;20665;-90
2023/08/17 07:21:55;;;;;;;26.42;24.13;;;16.00;95.30;;;;;;5092962;28;20569;-90
2023/08/17 07:24:20;;;;;;;26.70;24.42;;;15.90;95.30;;;;;;5092782;28;20673;-90
2023/08/17 07:26:46;;;;;;;25.83;23.63;;;16.00;95.30;;;;;;5092864;28;20261;-90
2023/08/17 07:29:12;;;;;;;25.73;23.15;;;16.00;95.30;;;;;;5092823;28;20629;-90
2023/08/17 07:31:38;;;;;;;25.98;23.65;;;16.00;95.30;;;;;;5092725;28;20224;-90
2023/08/17 07:34:07;;;;;;;28.55;24.83;;;16.00;95.30;;;;;;5091844;28;20171;-89
2023/08/17 07:36:33;;;;;;;26.15;23.73;;;16.00;95.30;;;;;;5093536;28;20198;-90
2023/08/17 07:38:59;;;;;;;26.00;23.90;;;16.10;95.30;;;;;;5092678;28;20258;-90
2023/08/17 07:41:25;;;;;;;26.65;24.33;;;16.00;95.20;;;;;;5092687;28;20261;-90
2023/08/17 07:43:51;;;;;;;27.30;24.67;;;16.00;95.20;;;;;;5092798;28;20658;-90
2023/08/17 07:46:17;;;;;;;26.50;24.00;;;16.10;95.20;;;;;;5092506;28;20198;-90
2023/08/17 07:48:42;;;;;;;25.48;23.50;;;16.10;95.30;;;;;;5092620;28;20223;-91
2023/08/17 07:51:08;;;;;;;38.90;35.55;;;16.10;95.30;;;;;;5092440;28;20650;-90
2023/08/17 07:53:33;;;;;;;37.65;34.65;;;16.00;95.20;;;;;;5092325;28;20665;-90
2023/08/17 07:55:59;;;;;;;41.20;37.65;;;16.10;95.30;;;;;;5092140;28;20214;-90
2023/08/17 07:58:25;;;;;;;26.63;24.30;;;16.10;95.20;;;;;;5092696;28;20642;-90
2023/08/17 08:00:50;;;;;;;27.23;24.77;;;16.10;95.20;;;;;;5092272;28;20171;-90
2023/08/17 08:03:16;;;;;;;26.48;24.08;;;16.10;95.30;;;;;;5092276;28;20546;-90
2023/08/17 08:05:41;;;;;;;26.38;24.08;;;16.10;95.20;;;;;;5092202;28;20677;-90
2023/08/17 08:08:07;;;;;;;26.17;23.77;;;16.10;95.30;;;;;;5092254;28;20193;-90
2023/08/17 08:10:32;;;;;;;27.52;24.60;;;16.20;95.30;;;;;;5092125;28;20175;-90
2023/08/17 08:12:58;;;;;;;39.40;36.10;;;16.10;95.20;;;;;;5092569;28;20618;-90
2023/08/17 08:15:24;;;;;;;41.03;37.53;;;16.10;95.20;;;;;;5093106;28;20198;-90
2023/08/17 08:17:49;;;;;;;42.85;39.50;;;16.10;95.20;;;;;;5093182;28;20194;-92
2023/08/17 08:20:15;;;;;;;26.92;24.83;;;16.10;95.30;;;;;;5092663;28;20217;-91
2023/08/17 08:22:40;;;;;;;29.50;26.58;;;16.10;95.30;;;;;;5093164;28;20177;-91
2023/08/17 08:25:06;;;;;;;40.17;36.72;;;16.20;95.30;;;;;;5092276;28;20293;-91
2023/08/17 08:27:32;;;;;;;41.10;37.92;;;16.20;95.30;;;;;;5092167;28;20229;-91
2023/08/17 08:29:57;;;;;;;;;;;16.20;95.30;;;;;;5093194;28;20190;-91
2023/08/17 08:32:23;;;;;;;29.80;27.02;;;16.20;95.30;;;;;;5092471;28;20047;-91
2023/08/17 08:34:48;;;;;;;28.85;26.30;;;16.20;95.30;;;;;;5092479;28;20292;-91
2023/08/17 08:37:14;;;;;;;43.38;39.70;;;16.20;95.30;;;;;;5092439;28;20631;-91
2023/08/17 08:39:50;;;;;;;44.20;40.63;;;16.20;95.30;;;;;;5092214;28;20184;-90
2023/08/17 08:42:17;;;;;;;29.50;27.27;;;16.20;95.40;;;;;;5092018;28;20661;-90
2023/08/17 08:44:42;;;;;;;29.38;26.83;;;16.20;95.40;;;;;;5092199;28;20226;-90
2023/08/17 08:47:08;;;;;;;29.05;26.40;;;16.20;95.40;;;;;;5095950;28;20692;-90
2023/08/17 08:49:38;;;;;;;29.17;26.63;;;16.30;95.40;;;;;;5097025;28;20203;-90
2023/08/17 08:52:07;;;;;;;28.90;26.55;;;16.30;95.40;;;;;;5096006;28;20187;-91
2023/08/17 08:54:35;;;;;;;29.52;26.83;;;16.20;95.40;;;;;;5095765;28;20229;-90
2023/08/17 08:57:09;;;;;;;28.08;25.77;;;16.30;95.40;;;;;;5096474;28;20289;-91
2023/08/17 08:59:36;;;;;;;27.23;24.83;;;16.40;95.50;;;;;;5096512;28;20677;-91
2023/08/17 09:02:03;;;;;;;29.40;26.73;;;16.50;95.50;;;;;;5095852;28;20174;-90
2023/08/17 09:04:29;;;;;;;27.83;25.48;;;16.40;95.40;;;;;;5095539;28;20202;-90
2023/08/17 09:06:56;;;;;;;28.02;25.50;;;16.50;95.50;;;;;;5096358;28;20175;-90
2023/08/17 09:09:22;;;;;;;28.17;25.45;;;16.50;95.50;;;;;;5095816;28;20601;-90
2023/08/17 09:11:48;;;;;;;28.90;26.40;;;16.50;95.50;;;;;;5095534;28;20650;-91
2023/08/17 09:14:13;;;;;;;28.40;25.75;;;16.50;95.50;;;;;;5095316;28;20183;-91
2023/08/17 09:16:39;;;;;;;29.67;26.65;;;16.50;95.50;;;;;;5095189;28;20285;-90
2023/08/17 09:19:06;;;;;;;28.85;26.65;;;16.60;95.50;;;;;;5095328;28;20186;-91
2023/08/17 09:21:32;;;;;;;29.15;26.15;;;16.70;95.60;;;;;;5095349;28;20170;-91
2023/08/17 09:23:58;;;;;;;28.10;25.75;;;16.80;95.60;;;;;;5095199;28;20174;-91
2023/08/17 09:26:24;;;;;;;28.25;25.92;;;16.70;95.50;;;;;;5096256;28;20664;-91
2023/08/17 09:28:51;;;;;;;28.17;25.95;;;16.70;95.50;;;;;;5095301;28;20200;-91
2023/08/17 09:31:21;;;;;;;28.55;26.35;;;16.70;95.60;;;;;;5095015;28;20182;-91
2023/08/17 09:33:49;;;;;;;28.25;26.05;;;16.80;95.60;;;;;;5095402;28;20178;-90
2023/08/17 09:36:15;;;;;;;28.60;26.50;;;16.70;95.60;;;;;;5094873;28;20690;-91
2023/08/17 09:38:43;;;;;;;29.20;26.55;;;16.80;95.60;;;;;;5096712;28;20175;-92
2023/08/17 09:41:09;;;;;;;28.35;26.10;;;16.90;95.70;;;;;;5094912;28;20703;-90
2023/08/17 09:43:36;;;;;;;29.05;26.58;;;17.00;95.60;;;;;;5094829;28;20170;-90
2023/08/17 09:46:03;;;;;;;27.88;25.63;;;16.90;95.60;;;;;;5094862;28;20198;-90
2023/08/17 09:48:28;;;;;;;29.05;26.65;;;16.90;95.50;;;;;;5094793;28;20174;-90
2023/08/17 09:50:57;;;;;;;30.50;27.88;;;16.80;95.50;;;;;;5095021;28;20269;-90
2023/08/17 09:53:23;;;;;;;28.58;26.38;;;16.80;95.50;;;;;;5096231;28;20190;-91
2023/08/17 09:55:48;;;;;;;29.67;27.25;;;16.80;95.40;;;;;;5094494;28;20221;-91
2023/08/17 09:58:15;;;;;;;31.02;28.40;;;16.70;95.40;;;;;;5093680;28;20191;-91
2023/08/17 10:00:47;;;;;;;30.00;27.60;;;16.80;95.50;;;;;;5094881;28;20175;-91
2023/08/17 10:03:18;;;;;;;28.95;26.75;;;16.90;95.50;;;;;;5094668;28;20167;-91
2023/08/17 10:05:47;;;;;;;30.60;27.73;;;16.90;95.50;;;;;;5094543;28;20674;-91
2023/08/17 10:08:18;;;;;;;29.00;26.83;;;16.90;95.50;;;;;;5095267;28;20261;-91
2023/08/17 10:10:45;;;;;;;30.13;27.60;;;17.00;95.50;;;;;;5094330;28;20163;-90
2023/08/17 10:13:19;;;;;;;30.55;28.13;;;17.10;95.50;;;;;;5094638;28;20213;-90
2023/08/17 10:16:02;;;;;;;28.55;26.55;;;17.10;95.50;;;;;;5095026;28;20308;-91
2023/08/17 10:18:55;;;;;;;31.42;28.67;;;17.20;95.50;;;;;;5094183;28;20174;-90
2023/08/17 10:21:28;;;;;;;29.60;27.50;;;17.20;95.50;;;;;;5094215;28;20171;-91
2023/08/17 10:23:57;;;;;;;24.70;22.75;;;17.10;95.40;;;;;;5094182;28;20187;-89
2023/08/17 10:26:23;;;;;;;28.10;26.08;;;16.90;95.10;;;;;;5095237;28;20589;-88
2023/08/17 10:28:49;;;;;;;26.92;25.00;;;17.00;95.20;;;;;;5093956;28;20288;-89
2023/08/17 10:31:16;;;;;;;27.70;25.20;;;17.20;95.10;;;;;;5094852;28;20174;-89
2023/08/17 10:33:45;;;;;;;27.20;24.92;;;17.20;95.10;;;;;;5095232;28;20586;-88
2023/08/17 10:36:13;;;;;;;24.75;22.98;;;17.20;95.00;;;;;;5093673;28;20197;-88
2023/08/17 10:38:38;;;;;;;28.65;26.42;;;17.10;94.60;;;;;;5093653;28;20546;-89
2023/08/17 10:41:09;;;;;;;28.35;26.27;;;17.40;94.80;;;;;;5095037;28;20169;-88
2023/08/17 10:43:52;;;;;;;26.80;24.88;;;17.50;94.70;;;;;;5095023;28;20158;-88
2023/08/17 10:46:18;;;;;;;26.85;24.88;;;17.50;94.60;;;;;;5094804;28;20261;-90
2023/08/17 10:48:44;;;;;;;28.63;26.10;;;17.50;94.40;;;;;;5094183;28;20197;-89
2023/08/17 10:51:13;;;;;;;26.65;24.75;;;17.60;94.30;;;;;;5094694;28;20241;-89
2023/08/17 10:53:42;;;;;;;27.33;25.42;;;17.60;94.20;;;;;;5093701;28;20745;-89
2023/08/17 10:56:11;;;;;;;27.60;25.58;;;17.70;94.20;;;;;;5093583;28;20225;-90
2023/08/17 10:58:37;;;;;;;26.80;24.38;;;17.70;94.10;;;;;;5095255;28;20167;-90
2023/08/17 11:01:03;;;;;;;25.85;23.92;;;17.70;93.90;;;;;;5094683;28;20167;-90
2023/08/17 11:03:29;;;;;;;26.77;24.65;;;17.70;93.80;;;;;;5094554;28;20175;-90
2023/08/17 11:05:56;;;;;;;40.70;37.80;;;17.70;93.80;;;;;;5093313;28;20190;-90
2023/08/17 11:08:27;;;;;;;40.63;37.72;;;17.90;94.00;;;;;;5094775;28;20167;-89
2023/08/17 11:11:02;;;;;;;44.25;41.25;;;17.70;93.40;;;;;;5094446;28;20167;-90
2023/08/17 11:13:30;;;;;;;26.88;24.88;;;17.70;93.40;;;;;;5094339;28;20170;-89
2023/08/17 11:15:58;;;;;;;28.63;26.55;;;17.80;93.50;;;;;;5094176;28;20684;-90
2023/08/17 11:18:24;;;;;;;44.00;41.25;;;17.80;93.60;;;;;;5094260;28;20256;-89
2023/08/17 11:20:50;;;;;;;48.13;44.83;;;17.80;93.40;;;;;;5094266;28;20174;-90
2023/08/17 11:23:16;;;;;;;49.30;45.92;;;17.80;93.40;;;;;;5095626;28;20175;-90
2023/08/17 11:25:42;;;;;;;27.88;25.70;;;17.80;93.50;;;;;;5095685;28;20286;-91
2023/08/17 11:28:09;;;;;;;31.25;28.70;;;17.80;93.60;;;;;;5096723;28;20178;-90
2023/08/17 11:30:37;;;;;;;48.65;45.55;;;17.80;93.70;;;;;;5094548;28;20231;-91
2023/08/17 11:33:02;;;;;;;49.00;45.33;;;17.90;93.70;;;;;;5093615;28;20580;-91
2023/08/17 11:35:28;;;;;;;45.28;42.13;;;17.80;93.80;;;;;;5095019;28;20190;-91
2023/08/17 11:37:54;;;;;;;33.60;31.25;;;17.80;93.90;;;;;;5093876;28;20194;-89
2023/08/17 11:40:19;;;;;;;33.55;31.15;;;17.90;94.00;;;;;;5094064;28;20726;-88
2023/08/17 11:42:48;;;;;;;33.92;31.63;;;17.80;94.00;;;;;;5092835;28;20182;-90
2023/08/17 11:45:14;;;;;;;32.95;30.70;;;17.90;94.10;;;;;;5095776;28;20187;-91
2023/08/17 11:47:43;;;;;;;;;;;17.80;94.10;;;;;;5097135;28;19916;-91
2023/08/17 11:50:11;;;;;;;37.42;34.42;;;17.90;94.20;;;;;;5096818;28;20107;-92
2023/08/17 11:52:37;;;;;;;34.45;32.15;;;17.80;94.20;;;;;;5100392;28;20639;-91
2023/08/17 11:55:09;;;;;;;33.58;31.17;;;17.90;94.30;;;;;;5099994;28;20230;-91
2023/08/17 11:57:35;;;;;;;34.67;31.83;;;17.80;94.30;;;;;;5096780;28;20194;-91
2023/08/17 12:00:03;;;;;;;34.80;32.30;;;17.80;94.40;;;;;;5098999;28;20237;-91
2023/08/17 12:02:30;;;;;;;32.35;29.65;;;17.80;94.40;;;;;;5097096;28;20202;-91
2023/08/17 12:04:57;;;;;;;34.20;31.50;;;17.80;94.40;;;;;;5102739;28;20213;-90
2023/08/17 12:07:26;;;;;;;33.63;30.83;;;17.80;94.40;;;;;;5102667;28;20194;-91
2023/08/17 12:09:52;;;;;;;35.45;32.72;;;17.80;94.50;;;;;;5103398;28;20231;-91
2023/08/17 12:12:19;;;;;;;36.13;33.43;;;17.90;94.60;;;;;;5096905;28;20282;-91
2023/08/17 12:14:46;;;;;;;36.28;33.40;;;17.80;94.60;;;;;;5095850;28;20204;-91
2023/08/17 12:17:17;;;;;;;35.67;33.08;;;17.80;94.60;;;;;;5096297;28;20271;-91
2023/08/17 12:19:43;;;;;;;36.53;33.65;;;17.90;94.60;;;;;;5101392;28;20179;-91
2023/08/17 12:22:09;;;;;;;36.90;34.22;;;17.90;94.70;;;;;;5103752;28;20257;-91
2023/08/17 12:24:35;;;;;;;38.03;34.85;;;17.80;94.60;;;;;;5107611;28;20202;-91